Kezdőlap
METAR-TAF:

METAR-TAF

Repülőterek :

Le Luc, Franciaország

földrajzi szélesség: 43-23N, földrajzi hosszúság: 006-23E, magasság: 80 m

Jelenlegi meteorológiai megfigyelések

A jelentés 38 perccel ezelõtt készült, 19:00 UTC
Észak-északnyugati szél 5 kt
Hőmérséklet 8°C
Páratartalom 81%
Légköri nyomás 1001 hPa
Látótávolság 10 km, vagy több

METAR: LFMC 231900Z AUTO 34005KT 9999 ////// 08/05 Q1001

Idő: 20:38 (19:38 UTC)


TAF: hiányzik

Meteorológiai megfigyelések és előrejelzések több, mint 4000 repülőtéren (METAR és TAF jelentéseket).

A térképen piros és sárga pontok jelzik az elérhető meteorológiai állomásokat.

Mozgassa az egeret a pont fölött, hogy megjelenjen az állomás neve.

Azután kattintson az időjárási megfigyelések és előrejelzések megtekintéséhez.

A térkép megváltoztatása: kattintson a fekete keresztel jelölt zöld gombra ráközelítéshez, a vonallal jelölt zöld gombra távolításhoz, vagy a zöld nyilakra a szomszédos térképek eléréséhez.


METAR-TAF: